Latest Weather Observations for Parafield

IDS60901

Issued at 9:01 am CST Monday 23 April 2018 (issued every 10 minutes, with the page automatically refreshed every 10 minutes)

About weather observations | Map of Adelaide area stations | Latest observations for Adelaide area | Other Formats
Station Details ID: 023013 Name: PARAFIELD AIRPORT Lat: -34.80 Lon: 138.63 Height: 9.5 m
Data from the previous 72 hours. | See also: Recent months at Parafield
Date/Time
CST
Temp
°C
App
Temp
°C
Dew
Point
°C
Rel
Hum
%
Delta-T
°C
Wind Press
QNH
hPa
Press
MSL
hPa
Rain since
9am
mm
Dir  Spd
km/h
Gust
km/h
Spd
kts
Gust
kts
23/09:00am 25.8 22.1 2.5 22 11.3 N 11 20 6 11 1016.7 1016.7 0.0
23/08:30am 25.7 20.9 2.4 22 11.2 NNE 17 22 9 12 1016.6 1016.6 0.0
23/08:00am 25.0 20.5 2.4 23 10.9 NNE 15 20 8 11 1016.2 1016.2 0.0
23/07:30am 23.4 18.6 2.8 26 9.9 NE 17 22 9 12 1015.7 1015.7 0.0
23/07:00am 21.4 17.4 3.1 30 8.7 NNE 13 17 7 9 1015.4 1015.4 0.0
23/06:30am 21.7 17.0 2.9 29 8.9 NNE 17 20 9 11 1014.9 1014.9 0.0
23/06:00am 22.1 17.4 3.3 29 9.0 NNE 17 22 9 12 1014.7 1014.7 0.0
23/05:30am 22.0 17.8 3.6 30 8.9 NNE 15 20 8 11 1014.5 1014.5 0.0
23/05:00am 21.5 17.9 5.0 34 8.1 N 13 24 7 13 1014.2 1014.2 0.0
23/04:30am 20.0 16.9 5.6 39 7.1 NNE 11 13 6 7 1014.1 1014.1 0.0
23/04:00am 18.4 15.9 4.9 41 6.5 ENE 7 9 4 5 1014.2 1014.2 0.0
23/03:30am 21.2 17.5 4.7 34 8.1 NE 13 17 7 9 1014.3 1014.3 0.0
23/03:00am 22.7 18.4 5.2 32 8.7 NNE 17 20 9 11 1014.5 1014.5 0.0
23/02:30am 21.6 17.7 5.5 35 8.0 NNE 15 17 8 9 1014.8 1014.8 0.0
23/02:00am 23.3 20.5 5.2 31 9.1 NNE 9 13 5 7 1015.1 1015.1 0.0
23/01:30am 24.1 20.1 5.0 29 9.6 NE 15 22 8 12 1015.4 1015.4 0.0
23/01:00am 24.3 19.4 5.1 29 9.7 ENE 20 28 11 15 1015.6 1015.6 0.0
23/12:30am 24.3 19.6 6.1 31 9.3 ENE 20 28 11 15 1015.9 1015.9 0.0
23/12:00am 23.9 19.0 7.1 34 8.7 ENE 22 30 12 16 1016.1 1016.1 0.0
 
Date/Time
CST
Temp
°C
App
Temp
°C
Dew
Point
°C
Rel
Hum
%
Delta-T
°C
Wind Press
QNH
hPa
Press
MSL
hPa
Rain since
9am
mm
Dir  Spd
km/h
Gust
km/h
Spd
kts
Gust
kts
22/11:30pm 24.1 19.7 7.3 34 8.8 E 20 28 11 15 1016.2 1016.2 0.0
22/11:00pm 24.3 19.9 7.4 34 8.9 E 20 28 11 15 1016.6 1016.6 0.0
22/10:30pm 24.4 19.3 7.5 34 8.9 E 24 32 13 17 1016.8 1016.8 0.0
22/10:00pm 24.6 19.0 7.3 33 9.1 E 26 33 14 18 1016.8 1016.8 0.0
22/09:30pm 24.9 20.0 7.1 32 9.3 E 22 30 12 16 1017.0 1017.0 0.0
22/09:00pm 25.1 20.3 7.3 32 9.3 E 22 28 12 15 1017.0 1017.0 0.0
22/08:30pm 24.9 20.8 8.0 34 9.0 E 19 24 10 13 1016.9 1016.9 0.0
22/08:00pm 25.0 20.9 8.5 35 8.9 E 20 28 11 15 1016.7 1016.7 0.0
22/07:30pm 24.9 22.0 9.6 38 8.4 E 15 20 8 11 1016.8 1016.8 0.0
22/07:00pm 25.1 22.0 10.2 39 8.2 E 17 20 9 11 1016.6 1016.6 0.0
22/06:30pm 26.0 22.5 10.2 37 8.8 E 19 24 10 13 1016.3 1016.3 0.0
22/06:00pm 26.4 24.1 5.9 27 10.6 SSE 7 11 4 6 1016.0 1016.0 0.0
22/05:30pm 28.4 27.2 4.6 22 12.2 CALM 0 0 0 0 1016.1 1016.1 0.0
22/05:00pm 30.7 29.3 3.7 18 13.8 CALM 0 0 0 0 1016.0 1016.0 0.0
22/04:30pm 31.6 30.0 2.7 16 14.6 CALM 0 0 0 0 1016.1 1016.1 0.0
22/04:00pm 31.9 28.9 2.1 15 14.9 WSW 7 11 4 6 1016.3 1016.3 0.0
22/03:30pm 32.1 29.1 2.2 15 15.0 WNW 7 17 4 9 1016.5 1016.5 0.0
22/03:00pm 31.6 28.2 1.8 15 14.8 WNW 9 17 5 9 1016.7 1016.7 0.0
22/02:30pm 32.2 29.4 3.2 16 14.8 WSW 7 13 4 7 1016.8 1016.8 0.0
22/02:00pm 31.4 28.4 4.2 18 14.1 WSW 9 13 5 7 1016.9 1016.9 0.0
22/01:30pm 30.7 27.8 4.4 19 13.6 WNW 9 11 5 6 1017.2 1017.2 0.0
22/01:00pm 30.4 27.9 4.9 20 13.3 NW 7 13 4 7 1017.6 1017.6 0.0
22/12:30pm 30.4 28.9 7.0 23 12.6 N 4 9 2 5 1018.3 1018.3 0.0
22/12:00pm 29.6 28.3 7.5 25 11.9 SE 4 9 2 5 1018.9 1018.9 0.0
22/11:30am 27.9 25.9 7.2 27 11.0 W 7 11 4 6 1019.4 1019.4 0.0
22/11:00am 27.5 25.3 7.9 29 10.6 NNW 9 13 5 7 1019.7 1019.7 0.0
22/10:30am 26.5 24.2 7.5 30 10.1 N 9 17 5 9 1020.0 1020.0 0.0
22/10:00am 26.0 23.8 9.4 35 9.1 N 11 15 6 8 1020.2 1020.2 0.0
22/09:30am 24.3 23.5 11.6 45 7.2 N 7 9 4 5 1020.3 1020.3 0.0
22/09:00am 23.7 24.3 12.0 48 6.6 CALM 0 4 0 2 1020.4 1020.4 0.2
22/08:30am 20.6 21.1 12.8 61 4.4 SSE 2 6 1 3 1020.3 1020.3 0.2
22/08:00am 17.4 18.6 13.9 80 2.0 CALM 0 0 0 0 1020.3 1020.3 0.2
22/07:30am 14.4 15.2 12.6 89 1.0 CALM 0 2 0 1 1020.2 1020.2 0.2
22/07:00am 13.9 13.4 12.5 91 0.8 SE 7 9 4 5 1019.9 1019.9 0.2
22/06:30am 13.2 13.5 10.9 86 1.2 CALM 0 0 0 0 1020.0 1020.0 0.2
22/06:00am 14.2 14.4 10.6 79 1.9 CALM 0 6 0 3 1019.5 1019.5 0.2
22/05:30am 14.5 13.9 11.7 83 1.5 E 6 7 3 4 1019.2 1019.2 0.2
22/05:00am 15.9 13.6 11.9 77 2.2 WNW 15 19 8 10 1018.8 1018.8 0.2
22/04:30am 16.3 15.5 11.7 74 2.5 W 7 11 4 6 1018.3 1018.3 0.2
22/04:00am 15.7 15.9 11.9 78 2.1 N 2 6 1 3 1018.2 1018.2 0.2
22/03:30am 15.2 15.5 11.0 76 2.2 CALM 0 6 0 3 1018.5 1018.5 0.2
22/03:00am 16.5 16.1 11.2 71 2.8 WSW 4 6 2 3 1018.9 1018.9 0.2
22/02:30am 17.2 15.6 11.5 69 3.1 NW 11 13 6 7 1019.2 1019.2 0.2
22/02:00am 19.0 17.9 10.6 58 4.5 NNW 7 15 4 8 1019.4 1019.4 0.2
22/01:30am 20.5 18.8 11.2 55 5.1 ESE 11 17 6 9 1019.5 1019.5 0.2
22/01:00am 20.0 18.5 10.7 55 5.1 E 9 15 5 8 1019.6 1019.6 0.2
22/12:30am 17.9 16.5 10.8 63 3.8 WSW 9 11 5 6 1019.8 1019.8 0.2
22/12:00am 19.1 18.9 10.4 57 4.7 WSW 2 9 1 5 1020.0 1020.0 0.2
 
Date/Time
CST
Temp
°C
App
Temp
°C
Dew
Point
°C
Rel
Hum
%
Delta-T
°C
Wind Press
QNH
hPa
Press
MSL
hPa
Rain since
9am
mm
Dir  Spd
km/h
Gust
km/h
Spd
kts
Gust
kts
21/11:30pm 18.6 17.7 11.2 62 4.0 NNW 7 9 4 5 1019.9 1019.9 0.2
21/11:00pm 20.3 19.4 11.2 56 5.0 SE 7 15 4 8 1020.1 1020.1 0.2
21/10:30pm 19.7 18.9 10.9 57 4.8 S 6 9 3 5 1020.3 1020.3 0.2
21/10:00pm 20.4 19.4 11.1 55 5.1 SE 7 20 4 11 1020.4 1020.4 0.2
21/09:30pm 20.6 19.5 11.8 57 4.9 S 9 13 5 7 1020.3 1020.3 0.2
21/09:00pm 20.8 19.7 12.0 57 4.9 SSE 9 15 5 8 1020.1 1020.1 0.2
21/08:30pm 21.0 20.7 12.7 59 4.7 ESE 6 15 3 8 1020.1 1020.1 0.2
21/08:00pm 21.7 20.2 13.1 58 4.9 SE 13 17 7 9 1019.7 1019.7 0.2
21/07:30pm 22.1 19.9 13.2 57 5.1 SE 17 24 9 13 1019.3 1019.3 0.2
21/07:00pm 22.7 20.3 13.7 56 5.2 SE 19 24 10 13 1019.0 1019.0 0.2
21/06:30pm 23.3 22.2 13.2 53 5.8 SE 11 17 6 9 1018.6 1018.6 0.2
21/06:00pm 22.8 21.1 11.2 48 6.4 SSW 11 13 6 7 1018.3 1018.3 0.2
21/05:30pm 24.8 22.7 11.0 42 7.7 SSW 13 15 7 8 1018.0 1018.0 0.2
21/05:00pm 27.2 24.6 9.5 33 9.8 SW 13 17 7 9 1017.9 1017.9 0.2
21/04:30pm 28.6 25.1 8.8 29 10.9 SW 17 24 9 13 1017.9 1017.9 0.2
21/04:00pm 29.5 26.2 6.2 23 12.3 SSW 13 17 7 9 1017.8 1017.8 0.2
21/03:30pm 30.0 26.7 6.6 23 12.5 WSW 13 17 7 9 1018.0 1018.0 0.2
21/03:00pm 30.0 26.4 6.6 23 12.5 WSW 15 22 8 12 1018.0 1018.0 0.2
21/02:30pm 30.3 25.8 6.2 22 12.8 W 19 24 10 13 1018.0 1018.0 0.2
21/02:00pm 30.3 25.9 7.5 24 12.4 W 20 26 11 14 1018.0 1018.0 0.2
21/01:30pm 30.9 28.7 8.0 24 12.6 NW 9 17 5 9 1018.1 1018.1 0.2
21/01:00pm 30.9 29.3 8.0 24 12.6 WNW 6 17 3 9 1018.3 1018.3 0.2
21/12:30pm 29.8 27.2 7.7 25 12.0 N 11 20 6 11 1018.7 1018.7 0.2
21/12:00pm 29.3 25.6 7.8 26 11.7 NNW 17 24 9 13 1019.2 1019.2 0.2
21/11:30am 29.9 27.6 8.9 27 11.6 NE 11 19 6 10 1019.5 1019.5 0.2
21/11:00am 28.8 25.7 9.0 29 10.9 N 15 24 8 13 1019.9 1019.9 0.0
21/10:30am 28.1 25.4 8.9 30 10.5 NE 13 22 7 12 1020.1 1020.1 0.0
21/10:00am 27.6 24.9 10.3 34 9.7 ENE 15 20 8 11 1020.2 1020.2 0.0
21/09:30am 26.2 23.3 12.3 42 8.0 E 19 24 10 13 1020.3 1020.3 0.0
21/09:00am 24.9 21.9 12.5 46 7.1 ENE 20 28 11 15 1020.1 1020.1 1.8
21/08:30am 23.6 22.9 13.2 52 6.0 E 9 15 5 8 1020.4 1020.4 1.8
21/08:00am 19.6 19.0 15.7 78 2.3 SE 13 17 7 9 1020.4 1020.4 1.8
21/07:30am 17.8 17.3 14.9 83 1.7 NW 11 17 6 9 1020.7 1020.7 1.8
21/07:00am 18.1 17.9 14.8 81 1.9 SW 9 15 5 8 1020.5 1020.5 1.8
21/06:30am 19.5 18.4 14.3 72 3.0 E 13 15 7 8 1020.4 1020.4 1.8
21/06:00am 19.1 19.3 14.8 76 2.5 SW 7 13 4 7 1020.4 1020.4 1.8
21/05:30am 19.1 16.6 14.1 73 2.9 W 20 44 11 24 1020.4 1020.4 1.8
21/05:28am 18.2 16.8 13.5 74 2.7 WSW 13 37 7 20 1020.1 1020.1 1.8
21/05:00am 18.7 18.5 12.9 69 3.3 E 6 9 3 5 1018.1 1018.1 1.8
21/04:30am 17.9 18.5 11.9 68 3.3 CALM 0 0 0 0 1017.8 1017.8 1.8
21/04:00am 18.4 17.4 12.2 67 3.4 ENE 9 11 5 6 1017.5 1017.5 1.8
21/03:30am 19.2 17.2 12.7 66 3.6 NE 15 17 8 9 1017.2 1017.2 1.8
21/03:00am 19.5 16.9 13.2 67 3.6 NE 19 20 10 11 1017.4 1017.4 1.8
21/02:30am 18.3 17.0 13.8 75 2.6 ENE 13 19 7 10 1017.8 1017.8 1.6
21/02:00am 17.7 17.5 14.8 83 1.7 SE 9 11 5 6 1018.2 1018.2 1.6
21/01:30am 19.0 18.3 15.5 80 2.1 SSE 13 17 7 9 1018.6 1018.6 1.6
21/01:00am 19.4 16.5 16.2 82 1.9 SE 26 35 14 19 1019.0 1019.0 1.6
21/12:30am 19.7 16.9 15.4 76 2.5 SW 24 39 13 21 1021.0 1021.0 0.8
21/12:06am 24.0 18.1 9.2 39 8.0 W 30 48 16 26 1020.0 1020.0 0.2
21/12:00am 24.0 18.8 10.3 42 7.5 WSW 28 43 15 23 1019.7 1019.7 0.2
 
Date/Time
CST
Temp
°C
App
Temp
°C
Dew
Point
°C
Rel
Hum
%
Delta-T
°C
Wind Press
QNH
hPa
Press
MSL
hPa
Rain since
9am
mm
Dir  Spd
km/h
Gust
km/h
Spd
kts
Gust
kts
20/11:55pm 24.2 20.2 9.0 38 8.2 NNW 20 43 11 23 1018.9 1018.9 0.2
20/11:30pm 25.7 20.9 5.8 28 10.2 NNE 20 26 11 14 1016.9 1016.9 0.2
20/11:00pm 24.9 20.4 6.1 30 9.7 NNE 19 22 10 12 1017.0 1017.0 0.2
20/10:30pm 24.0 19.4 5.8 31 9.2 ENE 19 22 10 12 1016.9 1016.9 0.2
20/10:00pm 22.5 19.1 9.0 42 7.2 NE 17 19 9 10 1017.0 1017.0 0.2
20/09:30pm 20.5 18.8 10.0 51 5.6 N 9 11 5 6 1017.4 1017.4 0.2
20/09:00pm 20.6 19.6 8.9 47 6.2 N 4 7 2 4 1017.1 1017.1 0.2
20/08:30pm 21.7 20.1 8.9 44 6.8 NW 7 9 4 5 1017.1 1017.1 0.2
20/08:00pm 22.1 21.5 8.9 43 7.0 W 2 6 1 3 1017.0 1017.0 0.2
20/07:30pm 25.6 24.8 8.1 33 9.4 N 2 9 1 5 1016.8 1016.8 0.2
20/07:00pm 24.3 22.5 7.9 35 8.7 NNE 7 11 4 6 1016.8 1016.8 0.2
20/06:30pm 23.6 22.4 8.1 37 8.2 NE 4 7 2 4 1016.6 1016.6 0.2
20/06:00pm 26.9 24.6 7.4 29 10.4 ESE 9 11 5 6 1016.1 1016.1 0.2
20/05:30pm 28.0 25.8 7.8 28 10.9 ENE 9 13 5 7 1015.9 1015.9 0.2
20/05:00pm 29.2 26.5 7.2 25 11.8 ENE 11 15 6 8 1015.8 1015.8 0.2
20/04:30pm 30.4 27.3 5.6 21 13.0 NE 11 17 6 9 1015.8 1015.8 0.2
20/04:00pm 31.9 28.9 7.5 22 13.4 ENE 13 19 7 10 1015.8 1015.8 0.2
20/03:30pm 31.5 28.8 7.2 22 13.2 ENE 11 17 6 9 1015.8 1015.8 0.2
20/03:00pm 31.6 28.3 6.6 21 13.5 E 13 20 7 11 1015.8 1015.8 0.0
20/02:30pm 30.7 27.3 7.8 24 12.5 ENE 15 19 8 10 1015.9 1015.9 0.0
20/02:00pm 29.0 26.4 9.2 29 11.0 NE 13 19 7 10 1015.9 1015.9 0.0
20/01:30pm 29.3 25.2 6.0 23 12.3 NNE 17 26 9 14 1016.1 1016.1 0.0
20/01:00pm 29.5 25.0 6.8 24 12.1 NNE 20 26 11 14 1016.2 1016.2 0.0
20/12:30pm 28.7 22.0 5.5 23 12.1 NNE 30 39 16 21 1016.7 1016.7 0.0
20/12:00pm 30.4 24.5 5.6 21 13.0 NE 26 35 14 19 1016.8 1016.8 0.0
20/11:30am 28.0 24.5 5.6 24 11.6 ENE 13 19 7 10 1018.2 1018.2 0.0
20/11:00am 28.1 25.4 5.6 24 11.7 NE 9 13 5 7 1018.8 1018.8 0.0
20/10:30am 26.9 24.7 6.3 27 10.7 N 7 11 4 6 1019.4 1019.4 0.0
20/10:00am 26.2 24.0 6.3 28 10.4 NNW 7 11 4 6 1019.4 1019.4 0.0
20/09:30am 25.8 23.3 6.4 29 10.1 NW 9 13 5 7 1019.4 1019.4 0.0

Latest Capital City Observations: Canberra | Sydney | Melbourne | Brisbane | Adelaide | Perth | Hobart | Darwin

Other Formats:

Comma delimited format used in spreadsheet applications
http://www.bom.gov.au/fwo/IDS60901/IDS60901.95677.axf

JavaScript Object Notation format (JSON) in row-major order
http://www.bom.gov.au/fwo/IDS60901/IDS60901.95677.json